Time;durP1;ratioP1;P1;durP2;ratioP2;P2;SDS_P1;SDS_P2;PMS_P1;PMS_P2;Temp;Humidity;BMP_temperature;BMP_pressure;BME280_temperature;BME280_humidity;BME280_pressure;Samples;Min_cycle;Max_cycle;Signal;HPM_P1;HPM_P2
2021/03/28 00:01:47;;;;;;;1.88;0.70;;;;;;;2.26;68.88;98947.75;10102911;29;20121;-75
2021/03/28 00:07:06;;;;;;;2.65;1.15;;;;;;;2.20;69.68;98944.25;10079667;29;20049;-74
2021/03/28 00:12:32;;;;;;;2.38;0.68;;;;;;;2.20;69.55;98944.25;10090809;29;20061;-75
2021/03/28 00:18:25;;;;;;;2.17;1.00;;;;;;;2.20;69.75;98949.75;10077615;29;20052;-76
2021/03/28 00:23:49;;;;;;;3.20;0.88;;;;;;;2.22;69.62;98950.00;10103334;29;20045;-76
2021/03/28 00:29:24;;;;;;;2.85;1.10;;;;;;;2.24;69.47;98956.53;10090165;29;20068;-76
2021/03/28 00:34:47;;;;;;;3.35;1.10;;;;;;;2.23;69.03;98959.78;10089738;29;20472;-74
2021/03/28 00:40:10;;;;;;;3.13;1.00;;;;;;;2.21;68.66;98970.53;10089615;29;20475;-75
2021/03/28 00:45:44;;;;;;;2.13;0.95;;;;;;;2.17;69.21;98972.84;10089362;29;20104;-76
2021/03/28 00:51:17;;;;;;;1.98;0.70;;;;;;;2.12;69.49;98966.06;10090430;29;20049;-75
2021/03/28 00:56:40;;;;;;;2.10;0.75;;;;;;;2.07;69.50;98969.63;10076694;29;20049;-75
2021/03/28 01:02:11;;;;;;;1.93;0.70;;;;;;;2.02;69.80;98973.13;10076081;29;20061;-76
2021/03/28 01:07:40;;;;;;;2.65;0.75;;;;;;;1.96;69.91;98967.66;10102263;29;20052;-77
2021/03/28 01:13:51;;;;;;;2.88;0.82;;;;;;;1.99;70.02;98974.91;10074313;29;20049;-76
2021/03/28 01:19:17;;;;;;;2.20;0.80;;;;;;;1.99;69.00;98963.88;10100986;29;20060;-76
2021/03/28 01:24:49;;;;;;;2.20;0.70;;;;;;;2.02;69.86;98964.88;10088009;29;20056;-76
2021/03/28 01:30:15;;;;;;;1.88;0.70;;;;;;;1.99;70.23;98966.66;10100913;29;20492;-76
2021/03/28 01:36:06;;;;;;;2.60;0.90;;;;;;;1.95;69.63;98960.66;10087730;29;20041;-75
2021/03/28 01:41:30;;;;;;;3.42;0.98;;;;;;;1.94;70.13;98956.41;10075575;29;20041;-75
2021/03/28 01:47:18;;;;;;;2.80;1.27;;;;;;;1.89;71.11;98954.41;10074501;29;20485;-76
2021/03/28 01:52:59;;;;;;;2.58;1.20;;;;;;;1.88;70.29;98955.69;10086351;29;20057;-75
2021/03/28 01:58:37;;;;;;;2.40;1.20;;;;;;;1.84;70.81;98955.19;10076049;29;20049;-77
2021/03/28 02:04:22;;;;;;;2.85;1.48;;;;;;;1.80;71.11;98960.22;10086126;29;20117;-75
2021/03/28 02:09:51;;;;;;;2.87;1.20;;;;;;;1.78;71.29;98959.97;10099546;29;20540;-75
2021/03/28 02:15:28;;;;;;;4.20;1.13;;;;;;;1.80;71.61;98953.94;10086190;29;20053;-76
2021/03/28 02:20:55;;;;;;;3.47;1.50;;;;;;;1.78;71.18;98956.47;10085839;29;20170;-76
2021/03/28 02:26:21;;;;;;;3.88;1.10;;;;;;;1.72;72.04;98950.97;10098920;29;20049;-76
2021/03/28 02:32:24;;;;;;;3.90;1.00;;;;;;;1.62;72.15;98950.50;10072620;29;20060;-75
2021/03/28 02:37:56;;;;;;;3.10;1.17;;;;;;;1.54;72.35;98959.78;10098415;29;20108;-76
2021/03/28 02:43:46;;;;;;;3.15;1.10;;;;;;;1.53;73.67;98955.53;10098147;29;20049;-75
2021/03/28 02:49:23;;;;;;;3.90;1.25;;;;;;;1.54;73.17;98957.78;10085078;29;20070;-76
2021/03/28 02:55:33;;;;;;;2.55;1.27;;;;;;;1.55;72.83;98964.78;10098004;29;20076;-75
2021/03/28 03:01:30;;;;;;;6.13;1.58;;;;;;;1.54;72.84;98959.78;10083578;29;20056;-75
2021/03/28 03:07:11;;;;;;;2.30;1.15;;;;;;;1.55;72.50;98964.06;10084508;29;20049;-76
2021/03/28 03:12:39;;;;;;;2.42;1.52;;;;;;;1.56;73.60;98962.78;10097779;29;20045;-76
2021/03/28 03:18:42;;;;;;;4.10;1.50;;;;;;;1.58;73.57;98965.78;10058699;29;20518;-75
2021/03/28 03:24:20;;;;;;;3.75;1.88;;;;;;;1.58;74.16;98963.03;10096620;29;20416;-76
2021/03/28 03:30:11;;;;;;;5.85;1.73;;;;;;;1.65;73.15;98968.03;10083784;29;20053;-76
2021/03/28 03:35:43;;;;;;;5.18;2.20;;;;;;;1.70;73.25;98964.50;10096134;29;20053;-76
2021/03/28 03:41:36;;;;;;;4.88;2.10;;;;;;;1.74;73.91;98967.75;10096343;29;20045;-76
2021/03/28 03:47:20;;;;;;;3.75;1.48;;;;;;;1.73;74.59;98971.72;10096200;29;20041;-76
2021/03/28 03:52:43;;;;;;;3.23;1.33;;;;;;;1.70;73.45;98967.25;10083629;29;20060;-75
2021/03/28 03:58:17;;;;;;;2.85;1.35;;;;;;;1.67;73.65;98962.75;10096040;29;20377;-75
2021/03/28 04:03:53;;;;;;;2.90;1.40;;;;;;;1.70;73.52;98972.75;10081794;29;20057;-76
2021/03/28 04:09:52;;;;;;;4.68;1.70;;;;;;;1.73;73.37;98988.25;10071454;29;20480;-76
2021/03/28 04:15:33;;;;;;;3.22;1.83;;;;;;;1.74;73.58;98984.28;10064601;29;20045;-76
2021/03/28 04:21:23;;;;;;;4.53;1.63;;;;;;;1.77;74.21;98980.50;10095325;29;20041;-77
2021/03/28 04:27:02;;;;;;;4.55;1.50;;;;;;;1.81;73.88;98989.22;10082364;29;20045;-76
2021/03/28 04:32:34;;;;;;;4.25;1.70;;;;;;;1.84;74.29;98990.25;10095981;29;20045;-77
2021/03/28 04:38:17;;;;;;;4.30;1.30;;;;;;;1.87;73.70;98986.47;10095864;29;20049;-76
2021/03/28 04:44:26;;;;;;;3.72;1.63;;;;;;;1.94;74.24;98999.72;10096608;29;20041;-75
2021/03/28 04:50:21;;;;;;;4.13;1.60;;;;;;;2.08;73.34;99014.44;9948301;29;20061;-75
2021/03/28 04:56:18;;;;;;;4.57;1.70;;;;;;;2.26;73.56;99011.88;10090045;29;20045;-76
2021/03/28 05:02:24;;;;;;;4.38;2.10;;;;;;;2.57;73.27;99020.97;10095835;29;20057;-76
2021/03/28 05:08:01;;;;;;;5.65;1.90;;;;;;;2.95;72.93;99027.50;10102110;29;20053;-75
2021/03/28 05:14:01;;;;;;;3.17;1.77;;;;;;;3.33;72.67;99024.97;10087468;29;20096;-76
2021/03/28 05:20:15;;;;;;;2.95;1.70;;;;;;;3.88;71.87;99031.97;10101760;29;20081;-77
2021/03/28 05:25:59;;;;;;;3.25;1.52;;;;;;;4.45;70.93;99037.63;10101899;29;20051;-77
2021/03/28 05:31:50;;;;;;;2.85;1.50;;;;;;;4.98;70.59;99038.63;10101524;29;20096;-76
2021/03/28 05:37:35;;;;;;;4.57;1.70;;;;;;;5.66;68.76;99043.84;10085088;29;20057;-75
2021/03/28 05:43:22;;;;;;;4.00;1.73;;;;;;;6.16;66.20;99037.38;10087918;29;20060;-76
2021/03/28 05:49:01;;;;;;;3.13;1.58;;;;;;;6.85;67.89;99046.56;10087812;29;20308;-77
2021/03/28 05:54:39;;;;;;;4.47;1.77;;;;;;;7.91;66.70;99046.00;10076153;29;20100;-76
2021/03/28 06:00:42;;;;;;;5.25;1.90;;;;;;;12.06;69.18;99061.19;10086816;29;20041;-75
2021/03/28 06:06:26;;;;;;;3.90;1.90;;;;;;;15.54;61.53;99056.63;10086330;29;20045;-74
2021/03/28 06:12:10;;;;;;;4.07;2.20;;;;;;;17.93;58.44;99047.97;10086236;29;20504;-76
2021/03/28 06:17:55;;;;;;;4.25;2.10;;;;;;;20.61;52.68;99060.34;10098648;29;20065;-75
2021/03/28 06:23:39;;;;;;;4.47;1.70;;;;;;;19.37;45.36;99063.16;10073013;29;20121;-76
2021/03/28 06:29:11;;;;;;;3.58;1.60;;;;;;;17.64;45.02;99059.63;10072487;29;20377;-75
2021/03/28 06:35:04;;;;;;;3.58;1.58;;;;;;;16.66;40.10;99066.88;10085241;29;20053;-75
2021/03/28 06:41:21;;;;;;;3.33;1.67;;;;;;;20.22;40.44;99078.25;10098077;29;20492;-77
2021/03/28 06:47:08;;;;;;;4.03;1.70;;;;;;;27.06;31.33;99078.03;10018176;29;20501;-76
2021/03/28 06:52:55;;;;;;;5.43;1.90;;;;;;;30.75;22.60;99076.72;10083931;29;20061;-75
2021/03/28 06:58:59;;;;;;;4.65;1.85;;;;;;;30.96;17.83;99079.75;10084526;29;20481;-76
2021/03/28 07:04:43;;;;;;;3.33;1.40;;;;;;;32.34;17.51;99085.50;10084289;29;20060;-74
2021/03/28 07:10:31;;;;;;;2.83;1.23;;;;;;;32.33;13.66;99087.66;10097616;29;20507;-74
2021/03/28 07:16:19;;;;;;;2.67;1.40;;;;;;;34.78;14.44;99095.59;10069624;29;20041;-75
2021/03/28 07:22:03;;;;;;;3.22;1.23;;;;;;;37.04;11.36;99098.56;10060219;29;20049;-74
2021/03/28 07:27:44;;;;;;;2.78;1.20;;;;;;;38.08;10.62;99106.00;10083460;29;20056;-75
2021/03/28 07:33:26;;;;;;;3.10;1.30;;;;;;;40.47;8.77;99109.22;10083325;29;20523;-74
2021/03/28 07:39:07;;;;;;;3.50;1.45;;;;;;;42.73;7.95;99119.31;10096205;29;20097;-75
2021/03/28 07:44:47;;;;;;;3.08;1.30;;;;;;;43.61;5.74;99089.09;10083074;29;20088;-75
2021/03/28 07:50:39;;;;;;;3.78;1.42;;;;;;;38.98;8.07;99095.88;10083039;29;20048;-75
2021/03/28 07:56:14;;;;;;;3.83;1.42;;;;;;;37.67;8.04;99092.28;10082922;29;20047;-75
2021/03/28 08:02:14;;;;;;;3.08;1.40;;;;;;;33.55;10.24;99089.75;10071130;29;20068;-76
2021/03/28 08:07:43;;;;;;;4.15;1.75;;;;;;;28.27;13.46;99099.19;10096652;29;20131;-75
2021/03/28 08:13:37;;;;;;;4.28;1.45;;;;;;;22.45;16.73;99104.25;10082720;29;20045;-75
2021/03/28 08:19:09;;;;;;;4.45;1.30;;;;;;;20.89;18.62;99100.69;10083824;29;20401;-75
2021/03/28 08:25:25;;;;;;;3.67;1.13;;;;;;;19.36;21.81;99092.84;10090293;29;20045;-74
2021/03/28 08:31:18;;;;;;;4.72;1.80;;;;;;;18.79;23.11;99092.50;10103929;29;20056;-75
2021/03/28 08:37:08;;;;;;;3.92;1.10;;;;;;;18.20;23.26;99080.63;10064376;29;20049;-76
2021/03/28 08:42:34;;;;;;;3.20;1.30;;;;;;;18.06;25.50;99068.50;10099761;29;20049;-75
2021/03/28 08:48:44;;;;;;;4.22;1.20;;;;;;;19.34;24.47;99070.81;10100581;29;20473;-77
2021/03/28 08:54:53;;;;;;;4.65;1.85;;;;;;;18.36;24.96;99080.84;10098008;29;20484;-76
2021/03/28 09:00:36;;;;;;;5.63;1.88;;;;;;;17.10;25.77;99080.31;10060792;29;20053;-77
2021/03/28 09:06:09;;;;;;;4.63;1.88;;;;;;;20.14;24.62;99078.56;10087588;29;20378;-76
2021/03/28 09:12:01;;;;;;;5.13;1.60;;;;;;;24.81;21.97;99085.31;10088968;29;20052;-75
2021/03/28 09:17:43;;;;;;;4.13;1.10;;;;;;;24.66;19.75;99106.22;10088537;29;20540;-75
2021/03/28 09:23:15;;;;;;;5.47;1.55;;;;;;;23.75;19.71;99097.31;10088147;29;20165;-76
2021/03/28 09:28:51;;;;;;;;;;;;;;;24.01;20.06;99101.09;10075337;29;20104;-78
2021/03/28 09:35:01;;;;;;;6.97;2.05;;;;;;;24.65;19.85;99106.91;10099759;29;19924;-76
2021/03/28 09:40:49;;;;;;;5.00;1.55;;;;;;;22.70;20.26;99101.03;10076880;29;20053;-76
2021/03/28 09:46:46;;;;;;;3.40;1.40;;;;;;;20.72;22.00;99096.34;10100390;29;20045;-75
2021/03/28 09:52:48;;;;;;;5.43;1.70;;;;;;;19.97;22.57;99081.91;10099842;29;20049;-75
2021/03/28 09:58:37;;;;;;;5.30;1.50;;;;;;;18.02;24.16;99091.56;10099651;29;20045;-75
2021/03/28 10:04:18;;;;;;;7.70;2.13;;;;;;;18.10;25.39;99088.50;10075985;29;20057;-75
2021/03/28 10:09:37;;;;;;;4.50;1.58;;;;;;;18.18;25.19;99094.63;10100066;29;20041;-81
2021/03/28 10:15:26;;;;;;;4.38;1.80;;;;;;;18.47;25.76;99094.94;10086087;29;20049;-85
2021/03/28 10:20:51;;;;;;;5.45;2.10;;;;;;;19.72;24.98;99080.66;10072905;29;20053;-81
2021/03/28 10:26:52;;;;;;;4.28;2.00;;;;;;;21.15;23.79;99093.44;10085728;29;20093;-80
2021/03/28 10:32:53;;;;;;;4.90;2.30;;;;;;;20.35;23.92;99091.66;10085499;29;20057;-80
2021/03/28 10:38:50;;;;;;;5.70;2.33;;;;;;;20.74;23.90;99082.25;10098492;29;20049;-82
2021/03/28 10:44:43;;;;;;;6.13;2.42;;;;;;;20.84;24.09;99083.50;10084673;29;20055;-82
2021/03/28 10:50:46;;;;;;;5.60;2.30;;;;;;;20.42;24.06;99072.84;10097827;29;20049;-80
2021/03/28 10:56:39;;;;;;;6.20;2.30;;;;;;;19.97;24.03;99070.59;10085843;29;20052;-81
2021/03/28 11:02:50;;;;;;;6.85;1.80;;;;;;;18.79;24.08;99081.19;10084494;29;20057;-82
2021/03/28 11:08:32;;;;;;;5.55;1.60;;;;;;;18.85;24.41;99058.91;10060354;29;20041;-85
2021/03/28 11:14:40;;;;;;;4.73;1.40;;;;;;;20.57;22.15;99055.94;10096902;29;20041;-81
2021/03/28 11:20:15;;;;;;;4.63;1.20;;;;;;;21.14;22.01;99055.81;10070733;29;20053;-80
2021/03/28 11:25:56;;;;;;;6.65;2.40;;;;;;;20.08;22.63;99066.94;10082588;29;20053;-82
2021/03/28 11:31:24;;;;;;;6.88;1.25;;;;;;;19.04;23.10;99069.91;10093151;29;20404;-80
2021/03/28 11:37:03;;;;;;;5.30;1.30;;;;;;;18.16;24.23;99064.19;10086181;29;20045;-81
2021/03/28 11:42:25;;;;;;;5.75;1.63;;;;;;;18.05;24.50;99070.59;10106455;29;20040;-80
2021/03/28 11:47:52;;;;;;;5.70;1.58;;;;;;;18.90;24.85;99071.91;10084355;29;20055;-81
2021/03/28 11:53:24;;;;;;;4.10;1.65;;;;;;;18.96;24.06;99063.78;10086024;29;20048;-81
2021/03/28 11:59:00;;;;;;;5.25;1.50;;;;;;;18.30;24.86;99050.13;10090901;29;20446;-82
2021/03/28 12:04:39;;;;;;;6.55;1.92;;;;;;;18.56;25.02;99042.41;10082593;29;20068;-83
2021/03/28 12:09:59;;;;;;;4.13;1.55;;;;;;;17.72;26.32;99028.38;10109294;29;20060;-82
2021/03/28 12:15:43;;;;;;;4.82;1.75;;;;;;;17.66;25.80;99039.25;10095746;29;20504;-82
2021/03/28 12:21:06;;;;;;;5.20;1.65;;;;;;;17.85;26.50;99041.84;10098234;29;20048;-84
2021/03/28 12:26:49;;;;;;;5.90;1.65;;;;;;;17.45;27.09;99054.97;10082366;29;20041;-81
2021/03/28 12:33:01;;;;;;;6.47;1.35;;;;;;;18.34;26.90;99041.16;10113550;29;20377;-81
2021/03/28 12:38:27;;;;;;;6.43;2.17;;;;;;;19.73;26.04;99041.72;10111696;29;20049;-83
2021/03/28 12:44:08;;;;;;;5.00;1.77;;;;;;;19.05;25.54;99043.06;10134019;29;20048;-76
2021/03/28 12:50:02;;;;;;;3.85;2.05;;;;;;;18.85;26.10;99039.13;10106558;29;20045;-80
2021/03/28 12:55:28;;;;;;;5.68;1.42;;;;;;;18.62;26.22;99036.38;10032715;29;20053;-79
2021/03/28 13:01:00;;;;;;;6.20;1.85;;;;;;;18.39;26.71;99028.72;10056489;29;20049;-84
2021/03/28 13:06:45;;;;;;;6.32;1.77;;;;;;;18.19;27.12;99028.28;10111567;29;20045;-82
2021/03/28 13:12:42;;;;;;;4.50;1.48;;;;;;;16.88;28.13;99025.31;10087124;29;20041;-79
2021/03/28 13:18:30;;;;;;;5.70;1.95;;;;;;;16.18;28.52;99025.75;10103898;29;20408;-78
2021/03/28 13:25:03;;;;;;;6.30;2.00;;;;;;;15.87;29.12;99019.44;10089791;29;20053;-78
2021/03/28 13:31:23;;;;;;;5.68;1.73;;;;;;;15.65;29.37;99016.59;10114641;29;20060;-78
2021/03/28 13:37:05;;;;;;;6.22;2.17;;;;;;;15.24;30.39;99007.41;10103489;29;20071;-79
2021/03/28 13:42:35;;;;;;;5.53;1.95;;;;;;;14.71;31.00;99011.41;10102490;29;20052;-78
2021/03/28 13:48:43;;;;;;;7.13;1.85;;;;;;;14.29;31.32;99004.91;10128285;29;20468;-79
2021/03/28 13:54:16;;;;;;;5.30;1.48;;;;;;;14.24;32.47;98996.78;10141135;29;20049;-78
2021/03/28 13:59:35;;;;;;;3.97;1.43;;;;;;;13.68;32.23;99008.09;10101445;29;20611;-79
2021/03/28 14:06:02;;;;;;;3.33;0.85;;;;;;;13.15;33.58;99004.78;10114024;29;20449;-78
2021/03/28 14:28:26;;;;;;;4.47;0.90;;;;;;;13.75;33.66;98987.56;10098925;29;20060;-78
2021/03/28 14:34:28;;;;;;;3.13;1.15;;;;;;;14.19;34.09;98980.97;10097178;29;20120;-78
2021/03/28 15:19:08;;;;;;;5.05;1.20;;;;;;;13.03;35.90;98958.25;9981831;29;20062;-78
2021/03/28 15:25:14;;;;;;;5.28;1.25;;;;;;;12.88;35.79;98951.53;9983545;29;20092;-78
2021/03/28 15:31:33;;;;;;;5.28;1.70;;;;;;;12.88;36.39;98945.19;9984796;29;20058;-78
2021/03/28 15:37:08;;;;;;;3.67;1.35;;;;;;;12.71;36.30;98948.78;10052576;29;20056;-78
2021/03/28 15:42:58;;;;;;;6.18;1.10;;;;;;;12.51;36.90;98953.53;10123393;29;20048;-78
2021/03/28 15:48:53;;;;;;;5.32;1.25;;;;;;;12.43;36.67;98968.97;10101169;29;20044;-77
2021/03/28 15:54:44;;;;;;;5.25;1.98;;;;;;;12.23;37.13;98962.47;10122437;29;20496;-78
2021/03/28 16:00:57;;;;;;;4.88;1.48;;;;;;;11.90;37.68;98957.06;10100705;29;20395;-78
2021/03/28 16:06:40;;;;;;;5.53;1.40;;;;;;;11.79;37.83;98959.59;10115828;29;20065;-78
2021/03/28 16:12:26;;;;;;;3.90;1.17;;;;;;;11.64;37.97;98960.47;10099829;29;20044;-78
2021/03/28 16:18:01;;;;;;;4.53;1.40;;;;;;;11.51;38.11;98947.53;10097289;29;20045;-79
2021/03/28 16:23:52;;;;;;;5.15;1.70;;;;;;;11.35;38.67;98949.72;10112236;29;20049;-76
2021/03/28 16:29:32;;;;;;;6.13;1.60;;;;;;;11.28;38.52;98947.72;10123079;29;20206;-78
2021/03/28 16:35:07;;;;;;;6.57;1.42;;;;;;;11.26;38.69;98946.81;10124319;29;20052;-77
2021/03/28 16:40:30;;;;;;;6.30;1.63;;;;;;;11.21;38.60;98953.41;10125893;29;20047;-78
2021/03/28 16:46:12;;;;;;;5.68;1.80;;;;;;;11.13;38.97;98945.06;10118467;29;20051;-75
2021/03/28 16:51:41;;;;;;;3.35;1.30;;;;;;;11.03;39.17;98950.53;10107741;29;20055;-77
2021/03/28 16:57:23;;;;;;;5.45;1.75;;;;;;;10.95;39.54;98943.53;11337777;23;20022;31
2021/03/28 17:09:15;;;;;;;5.85;2.13;;;;;;;10.65;40.18;98924.91;10065740;29;20413;-80
2021/03/28 17:14:41;;;;;;;7.07;2.42;;;;;;;10.45;40.40;98924.66;10064818;29;20405;-81
2021/03/28 17:20:38;;;;;;;6.05;2.00;;;;;;;10.34;40.85;98916.72;10092075;29;20053;-80
2021/03/28 17:32:24;;;;;;;11.27;2.80;;;;;;;10.22;41.32;98915.63;10812692;23;20407;-81
2021/03/28 17:38:05;;;;;;;10.82;4.57;;;;;;;10.15;41.64;98916.41;10562899;23;20020;31
2021/03/28 17:43:49;;;;;;;13.52;6.60;;;;;;;10.07;41.82;98915.69;10385606;23;20121;-82
2021/03/28 17:49:08;;;;;;;10.27;4.70;;;;;;;10.04;42.78;98914.78;10084988;29;20049;-80
2021/03/28 17:54:36;;;;;;;12.00;4.47;;;;;;;9.93;42.11;98918.69;10117752;29;20049;-79
2021/03/28 17:59:59;;;;;;;10.02;4.10;;;;;;;9.83;42.27;98911.47;10105908;29;20041;-81
2021/03/28 18:05:25;;;;;;;7.90;3.47;;;;;;;9.73;42.61;98916.88;10229103;24;20113;-80
2021/03/28 18:11:02;;;;;;;12.07;4.13;;;;;;;9.69;42.71;98922.84;10098001;29;20049;-78
2021/03/28 18:16:24;;;;;;;14.30;4.95;;;;;;;9.75;42.96;98936.59;10114141;29;20045;-79
2021/03/28 18:21:49;;;;;;;12.27;5.63;;;;;;;9.75;42.95;98936.59;10087542;29;20056;-79
2021/03/28 18:27:13;;;;;;;10.25;4.90;;;;;;;9.74;43.03;98941.41;10116107;29;20045;-78
2021/03/28 18:32:37;;;;;;;10.30;5.18;;;;;;;9.70;43.39;98941.06;10114775;29;20403;-78
2021/03/28 18:37:59;;;;;;;9.75;4.85;;;;;;;9.63;43.72;98946.66;10112773;29;20485;-78
2021/03/28 18:43:28;;;;;;;10.90;4.80;;;;;;;9.57;43.50;98948.91;10098849;29;20056;-78
2021/03/28 18:48:53;;;;;;;12.02;5.85;;;;;;;9.60;43.86;98947.78;10085490;29;20045;-78
2021/03/28 18:54:18;;;;;;;12.23;6.32;;;;;;;9.48;44.93;98932.75;10627754;23;20112;-80
2021/03/28 18:59:39;;;;;;;11.68;6.40;;;;;;;9.43;44.21;98945.56;10161224;29;20035;-80
2021/03/28 19:05:01;;;;;;;13.07;6.55;;;;;;;9.50;43.98;98949.66;10137720;29;20041;-81
2021/03/28 19:10:34;;;;;;;11.00;5.88;;;;;;;9.47;44.58;98940.38;10111045;29;20044;-78
2021/03/28 19:15:55;;;;;;;13.93;7.70;;;;;;;9.48;44.42;98941.13;10098973;29;20131;-77
2021/03/28 19:21:26;;;;;;;13.70;6.45;;;;;;;9.42;44.66;98944.81;10109848;29;20120;-78
2021/03/28 19:26:45;;;;;;;14.52;6.85;;;;;;;9.41;44.85;98937.75;10096941;29;20049;-78
2021/03/28 19:32:28;;;;;;;12.52;6.85;;;;;;;9.36;45.45;98944.28;10109755;29;20411;-79
2021/03/28 19:38:15;;;;;;;16.42;7.35;;;;;;;9.35;45.37;98948.34;10136211;29;20068;-77
2021/03/28 19:44:01;;;;;;;12.70;6.97;;;;;;;9.38;45.26;98955.59;10110984;29;20056;-79
2021/03/28 19:49:27;;;;;;;16.20;8.68;;;;;;;9.39;45.34;98957.09;10098112;29;20444;-79
2021/03/28 19:54:47;;;;;;;15.35;8.68;;;;;;;9.35;45.15;98953.19;10097081;29;20060;-78
2021/03/28 20:00:21;;;;;;;16.42;8.93;;;;;;;9.32;45.22;98952.25;10142101;29;20496;-79
2021/03/28 20:05:48;;;;;;;18.65;8.52;;;;;;;9.24;45.50;98945.19;10110675;29;20059;-79
2021/03/28 20:11:17;;;;;;;14.15;7.35;;;;;;;9.19;45.81;98952.44;10136882;29;20104;-79
2021/03/28 20:16:47;;;;;;;12.32;7.55;;;;;;;9.11;45.70;98946.13;10136163;29;20073;-82
2021/03/28 20:22:12;;;;;;;13.35;5.75;;;;;;;8.99;45.57;98942.97;10159992;29;20454;-82
2021/03/28 20:27:34;;;;;;;9.77;4.97;;;;;;;8.93;45.89;98938.88;10146904;29;20051;-83
2021/03/28 20:32:55;;;;;;;13.73;6.07;;;;;;;8.84;45.91;98929.03;10161876;29;20045;-82
2021/03/28 20:38:21;;;;;;;11.00;5.53;;;;;;;8.79;45.95;98936.25;10151923;29;20072;-82
2021/03/28 20:57:30;;;;;;;11.65;6.88;;;;;;;8.69;46.81;98957.59;12426212;23;20891;31
2021/03/28 22:41:04;;;;;;;7.28;3.40;;;;;;;8.56;47.50;98975.16;12428083;23;20061;31
2021/03/28 22:53:00;;;;;;;10.00;3.63;;;;;;;8.46;47.42;98992.94;11664204;23;20047;-80
2021/03/28 23:11:47;;;;;;;7.37;3.17;;;;;;;8.21;47.72;98989.84;12427977;23;21565;31
2021/03/28 23:36:49;;;;;;;11.30;3.35;;;;;;;8.64;47.07;98999.50;11949440;23;20068;-80
2021/03/28 23:48:29;;;;;;;7.00;3.38;;;;;;;8.86;46.97;98999.56;11798699;23;20046;-81
